sensor_id;sensor_type;location;lat;lon;timestamp;pressure;altitude;pressure_sealevel;temperature;humidity
53526;BME280;40551;50.478;19.378;2022-07-23T00:01:43;97971.44;;;19.13;70.55
53526;BME280;40551;50.478;19.378;2022-07-23T00:04:15;97970.27;;;19.02;70.56
53526;BME280;40551;50.478;19.378;2022-07-23T00:06:46;97968.14;;;18.94;70.79
53526;BME280;40551;50.478;19.378;2022-07-23T00:09:18;97967.36;;;18.89;71.12
53526;BME280;40551;50.478;19.378;2022-07-23T00:11:49;97963.56;;;18.83;71.26
53526;BME280;40551;50.478;19.378;2022-07-23T00:14:21;97971.01;;;18.82;71.41
53526;BME280;40551;50.478;19.378;2022-07-23T00:16:52;97972.94;;;18.83;71.61
53526;BME280;40551;50.478;19.378;2022-07-23T00:19:27;97974.86;;;18.86;71.58
53526;BME280;40551;50.478;19.378;2022-07-23T00:22:02;97982.67;;;18.89;71.52
53526;BME280;40551;50.478;19.378;2022-07-23T00:24:34;97985.14;;;18.90;71.32
53526;BME280;40551;50.478;19.378;2022-07-23T00:27:05;97987.83;;;18.92;71.47
53526;BME280;40551;50.478;19.378;2022-07-23T00:29:37;97984.73;;;18.92;71.57
53526;BME280;40551;50.478;19.378;2022-07-23T00:32:09;97981.15;;;18.90;71.54
53526;BME280;40551;50.478;19.378;2022-07-23T00:34:40;97981.31;;;18.82;71.13
53526;BME280;40551;50.478;19.378;2022-07-23T00:37:13;97982.19;;;18.75;71.11
53526;BME280;40551;50.478;19.378;2022-07-23T00:39:44;97979.67;;;18.71;71.30
53526;BME280;40551;50.478;19.378;2022-07-23T00:42:16;97981.57;;;18.67;71.33
53526;BME280;40551;50.478;19.378;2022-07-23T00:44:48;97977.91;;;18.63;71.31
53526;BME280;40551;50.478;19.378;2022-07-23T00:47:19;97980.61;;;18.61;71.52
53526;BME280;40551;50.478;19.378;2022-07-23T00:49:51;97979.55;;;18.61;71.39
53526;BME280;40551;50.478;19.378;2022-07-23T00:52:23;97974.38;;;18.61;71.52
53526;BME280;40551;50.478;19.378;2022-07-23T00:54:55;97976.08;;;18.55;71.23
53526;BME280;40551;50.478;19.378;2022-07-23T00:57:26;97973.88;;;18.49;71.16
53526;BME280;40551;50.478;19.378;2022-07-23T00:59:59;97980.80;;;18.45;71.36
53526;BME280;40551;50.478;19.378;2022-07-23T01:02:31;97975.52;;;18.44;71.46
53526;BME280;40551;50.478;19.378;2022-07-23T01:05:03;97974.47;;;18.38;71.26
53526;BME280;40551;50.478;19.378;2022-07-23T01:07:35;97979.44;;;18.28;71.10
53526;BME280;40551;50.478;19.378;2022-07-23T01:10:08;97978.70;;;18.20;71.34
53526;BME280;40551;50.478;19.378;2022-07-23T01:12:54;97978.10;;;18.17;71.61
53526;BME280;40551;50.478;19.378;2022-07-23T01:15:25;97978.08;;;18.15;71.79
53526;BME280;40551;50.478;19.378;2022-07-23T01:17:57;97981.52;;;18.15;72.04
53526;BME280;40551;50.478;19.378;2022-07-23T01:20:29;97983.92;;;18.14;71.97
53526;BME280;40551;50.478;19.378;2022-07-23T01:23:01;97982.31;;;18.11;72.04
53526;BME280;40551;50.478;19.378;2022-07-23T01:25:33;97976.80;;;18.11;72.21
53526;BME280;40551;50.478;19.378;2022-07-23T01:28:06;97978.26;;;18.08;71.99
53526;BME280;40551;50.478;19.378;2022-07-23T01:30:38;97978.48;;;18.04;71.84
53526;BME280;40551;50.478;19.378;2022-07-23T01:33:11;97976.98;;;18.02;72.00
53526;BME280;40551;50.478;19.378;2022-07-23T01:35:42;97977.67;;;18.03;72.19
53526;BME280;40551;50.478;19.378;2022-07-23T01:38:20;97975.96;;;18.04;72.01
53526;BME280;40551;50.478;19.378;2022-07-23T01:40:52;97969.84;;;18.04;72.00
53526;BME280;40551;50.478;19.378;2022-07-23T01:43:28;97966.29;;;18.02;71.91
53526;BME280;40551;50.478;19.378;2022-07-23T01:45:59;97962.48;;;17.92;71.58
53526;BME280;40551;50.478;19.378;2022-07-23T01:48:37;97961.92;;;17.82;71.76
53526;BME280;40551;50.478;19.378;2022-07-23T01:51:23;97964.17;;;17.79;72.01
53526;BME280;40551;50.478;19.378;2022-07-23T01:54:01;97962.20;;;17.78;72.10
53526;BME280;40551;50.478;19.378;2022-07-23T01:56:33;97965.86;;;17.78;72.29
53526;BME280;40551;50.478;19.378;2022-07-23T01:59:05;97967.90;;;17.77;72.41
53526;BME280;40551;50.478;19.378;2022-07-23T02:01:37;97970.84;;;17.76;72.43
53526;BME280;40551;50.478;19.378;2022-07-23T02:04:08;97971.96;;;17.75;72.46
53526;BME280;40551;50.478;19.378;2022-07-23T02:06:40;97975.93;;;17.75;72.54
53526;BME280;40551;50.478;19.378;2022-07-23T02:09:12;97976.10;;;17.76;72.52
53526;BME280;40551;50.478;19.378;2022-07-23T02:11:45;97975.64;;;17.75;72.53
53526;BME280;40551;50.478;19.378;2022-07-23T02:14:16;97974.40;;;17.73;72.41
53526;BME280;40551;50.478;19.378;2022-07-23T02:16:49;97981.85;;;17.71;72.40
53526;BME280;40551;50.478;19.378;2022-07-23T02:19:21;97979.92;;;17.70;72.28
53526;BME280;40551;50.478;19.378;2022-07-23T02:21:53;97980.48;;;17.66;72.20
53526;BME280;40551;50.478;19.378;2022-07-23T02:24:25;97974.45;;;17.56;71.63
53526;BME280;40551;50.478;19.378;2022-07-23T02:26:57;97968.64;;;17.41;71.34
53526;BME280;40551;50.478;19.378;2022-07-23T02:29:30;97974.01;;;17.25;71.55
53526;BME280;40551;50.478;19.378;2022-07-23T02:32:01;97974.52;;;17.11;71.89
53526;BME280;40551;50.478;19.378;2022-07-23T02:34:33;97975.59;;;16.99;72.05
53526;BME280;40551;50.478;19.378;2022-07-23T02:37:06;97978.39;;;16.88;72.48
53526;BME280;40551;50.478;19.378;2022-07-23T02:39:39;97981.15;;;16.83;73.00
53526;BME280;40551;50.478;19.378;2022-07-23T02:42:11;97982.19;;;16.83;73.39
53526;BME280;40551;50.478;19.378;2022-07-23T02:44:44;97979.59;;;16.85;73.36
53526;BME280;40551;50.478;19.378;2022-07-23T02:47:15;97975.74;;;16.78;73.06
53526;BME280;40551;50.478;19.378;2022-07-23T02:49:48;97973.30;;;16.70;73.08
53526;BME280;40551;50.478;19.378;2022-07-23T02:52:20;97974.34;;;16.62;73.34
53526;BME280;40551;50.478;19.378;2022-07-23T02:54:52;97971.31;;;16.58;73.59
53526;BME280;40551;50.478;19.378;2022-07-23T02:57:23;97972.92;;;16.55;73.76
53526;BME280;40551;50.478;19.378;2022-07-23T02:59:55;97973.54;;;16.55;74.09
53526;BME280;40551;50.478;19.378;2022-07-23T03:02:26;97975.38;;;16.59;74.23
53526;BME280;40551;50.478;19.378;2022-07-23T03:04:58;97973.30;;;16.65;74.45
53526;BME280;40551;50.478;19.378;2022-07-23T03:07:30;97971.46;;;16.68;74.16
53526;BME280;40551;50.478;19.378;2022-07-23T03:10:02;97968.09;;;16.69;74.07
53526;BME280;40551;50.478;19.378;2022-07-23T03:12:34;97965.02;;;16.67;73.90
53526;BME280;40551;50.478;19.378;2022-07-23T03:15:10;97959.55;;;16.65;74.00
53526;BME280;40551;50.478;19.378;2022-07-23T03:17:41;97959.85;;;16.65;74.29
53526;BME280;40551;50.478;19.378;2022-07-23T03:20:13;97960.33;;;16.69;74.56
53526;BME280;40551;50.478;19.378;2022-07-23T03:22:45;97956.83;;;16.74;74.41
53526;BME280;40551;50.478;19.378;2022-07-23T03:25:18;97954.30;;;16.76;74.25
53526;BME280;40551;50.478;19.378;2022-07-23T03:27:50;97951.05;;;16.80;74.36
53526;BME280;40551;50.478;19.378;2022-07-23T03:30:22;97953.28;;;16.87;74.56
53526;BME280;40551;50.478;19.378;2022-07-23T03:32:54;97956.73;;;17.03;74.82
53526;BME280;40551;50.478;19.378;2022-07-23T03:35:26;97960.39;;;17.37;75.48
53526;BME280;40551;50.478;19.378;2022-07-23T03:38:20;97962.89;;;17.91;75.66
53526;BME280;40551;50.478;19.378;2022-07-23T03:40:53;97964.23;;;18.37;75.06
53526;BME280;40551;50.478;19.378;2022-07-23T03:43:25;97969.29;;;18.89;74.74
53526;BME280;40551;50.478;19.378;2022-07-23T03:45:56;97973.37;;;19.45;73.97
53526;BME280;40551;50.478;19.378;2022-07-23T03:48:28;97976.25;;;19.98;73.09
53526;BME280;40551;50.478;19.378;2022-07-23T03:51:02;97976.08;;;20.46;71.94
53526;BME280;40551;50.478;19.378;2022-07-23T03:53:33;97973.69;;;20.94;71.16
53526;BME280;40551;50.478;19.378;2022-07-23T03:56:06;97971.63;;;21.42;69.87
53526;BME280;40551;50.478;19.378;2022-07-23T03:58:37;97971.05;;;21.72;67.75
53526;BME280;40551;50.478;19.378;2022-07-23T04:01:09;97967.52;;;21.92;66.50
53526;BME280;40551;50.478;19.378;2022-07-23T04:03:42;97965.48;;;22.26;66.42
53526;BME280;40551;50.478;19.378;2022-07-23T04:06:14;97962.73;;;22.58;65.29
53526;BME280;40551;50.478;19.378;2022-07-23T04:08:45;97958.73;;;22.90;64.26
53526;BME280;40551;50.478;19.378;2022-07-23T04:11:17;97962.90;;;23.25;63.61
53526;BME280;40551;50.478;19.378;2022-07-23T04:13:49;97956.09;;;23.51;62.57
53526;BME280;40551;50.478;19.378;2022-07-23T04:16:20;97950.44;;;23.77;61.85
53526;BME280;40551;50.478;19.378;2022-07-23T04:18:52;97952.31;;;24.10;61.57
53526;BME280;40551;50.478;19.378;2022-07-23T04:21:25;97956.52;;;24.56;61.12
53526;BME280;40551;50.478;19.378;2022-07-23T04:23:58;97957.45;;;25.07;60.51
53526;BME280;40551;50.478;19.378;2022-07-23T04:26:29;97958.58;;;25.55;59.44
53526;BME280;40551;50.478;19.378;2022-07-23T04:29:01;97961.14;;;26.08;58.59
53526;BME280;40551;50.478;19.378;2022-07-23T04:31:33;97966.92;;;26.48;57.00
53526;BME280;40551;50.478;19.378;2022-07-23T04:34:08;97968.11;;;26.79;56.03
53526;BME280;40551;50.478;19.378;2022-07-23T04:36:39;97967.19;;;27.19;55.10
53526;BME280;40551;50.478;19.378;2022-07-23T04:39:11;97972.08;;;27.49;54.03
53526;BME280;40551;50.478;19.378;2022-07-23T04:41:44;97973.36;;;27.71;53.32
53526;BME280;40551;50.478;19.378;2022-07-23T04:44:16;97967.96;;;27.97;52.47
53526;BME280;40551;50.478;19.378;2022-07-23T04:46:49;97967.65;;;28.27;51.70
53526;BME280;40551;50.478;19.378;2022-07-23T04:49:23;97966.00;;;28.54;51.27
53526;BME280;40551;50.478;19.378;2022-07-23T04:51:55;97964.67;;;28.52;50.18
53526;BME280;40551;50.478;19.378;2022-07-23T04:54:26;97962.92;;;28.25;49.60
53526;BME280;40551;50.478;19.378;2022-07-23T04:56:58;97956.98;;;28.21;49.99
53526;BME280;40551;50.478;19.378;2022-07-23T04:59:30;97958.30;;;28.10;49.90
53526;BME280;40551;50.478;19.378;2022-07-23T05:02:05;97963.15;;;28.31;50.62
53526;BME280;40551;50.478;19.378;2022-07-23T05:04:37;97960.46;;;28.61;50.31
53526;BME280;40551;50.478;19.378;2022-07-23T05:07:09;97959.17;;;28.49;49.11
53526;BME280;40551;50.478;19.378;2022-07-23T05:09:41;97960.64;;;28.42;49.55
53526;BME280;40551;50.478;19.378;2022-07-23T05:12:13;97956.94;;;28.84;49.91
53526;BME280;40551;50.478;19.378;2022-07-23T05:14:46;97957.46;;;29.27;49.27
53526;BME280;40551;50.478;19.378;2022-07-23T05:17:17;97959.67;;;29.34;48.28
53526;BME280;40551;50.478;19.378;2022-07-23T05:19:49;97962.91;;;29.59;48.41
53526;BME280;40551;50.478;19.378;2022-07-23T05:22:27;97960.92;;;30.09;48.13
53526;BME280;40551;50.478;19.378;2022-07-23T05:24:59;97963.21;;;30.58;47.54
53526;BME280;40551;50.478;19.378;2022-07-23T05:27:31;97965.67;;;30.56;46.37
53526;BME280;40551;50.478;19.378;2022-07-23T05:30:03;97958.70;;;30.48;46.41
53526;BME280;40551;50.478;19.378;2022-07-23T05:32:37;97961.79;;;30.53;46.27
53526;BME280;40551;50.478;19.378;2022-07-23T05:35:15;97960.05;;;30.22;45.86
53526;BME280;40551;50.478;19.378;2022-07-23T05:37:55;97960.55;;;30.01;46.42
53526;BME280;40551;50.478;19.378;2022-07-23T05:40:27;97958.64;;;30.37;47.48
53526;BME280;40551;50.478;19.378;2022-07-23T05:43:00;97954.74;;;30.89;47.21
53526;BME280;40551;50.478;19.378;2022-07-23T05:45:32;97951.95;;;31.37;46.72
53526;BME280;40551;50.478;19.378;2022-07-23T05:48:04;97948.31;;;31.66;46.17
53526;BME280;40551;50.478;19.378;2022-07-23T05:50:41;97950.61;;;32.04;45.97
53526;BME280;40551;50.478;19.378;2022-07-23T05:53:20;97956.79;;;32.55;45.45
53526;BME280;40551;50.478;19.378;2022-07-23T05:56:03;97948.04;;;33.08;44.72
53526;BME280;40551;50.478;19.378;2022-07-23T05:58:35;97946.70;;;33.63;44.27
53526;BME280;40551;50.478;19.378;2022-07-23T06:01:07;97943.66;;;34.09;43.38
53526;BME280;40551;50.478;19.378;2022-07-23T06:03:45;97942.39;;;34.48;42.62
53526;BME280;40551;50.478;19.378;2022-07-23T06:06:17;97945.15;;;34.77;41.92
53526;BME280;40551;50.478;19.378;2022-07-23T06:08:48;97939.05;;;35.09;41.70
53526;BME280;40551;50.478;19.378;2022-07-23T06:11:20;97934.16;;;35.40;41.00
53526;BME280;40551;50.478;19.378;2022-07-23T06:13:52;97928.61;;;35.72;40.44
53526;BME280;40551;50.478;19.378;2022-07-23T06:16:26;97921.83;;;35.91;39.79
53526;BME280;40551;50.478;19.378;2022-07-23T06:18:58;97921.39;;;36.13;39.14
53526;BME280;40551;50.478;19.378;2022-07-23T06:21:32;97915.95;;;36.41;38.63
53526;BME280;40551;50.478;19.378;2022-07-23T06:24:19;97915.14;;;36.76;38.30
53526;BME280;40551;50.478;19.378;2022-07-23T06:26:52;97915.50;;;37.16;37.35
53526;BME280;40551;50.478;19.378;2022-07-23T06:29:24;97909.61;;;37.35;35.59
53526;BME280;40551;50.478;19.378;2022-07-23T06:31:56;97910.70;;;37.52;34.90
53526;BME280;40551;50.478;19.378;2022-07-23T06:34:28;97906.38;;;37.74;34.45
53526;BME280;40551;50.478;19.378;2022-07-23T06:37:02;97906.88;;;38.11;34.43
53526;BME280;40551;50.478;19.378;2022-07-23T06:39:34;97912.40;;;38.42;33.60
53526;BME280;40551;50.478;19.378;2022-07-23T06:42:07;97911.83;;;38.61;32.16
53526;BME280;40551;50.478;19.378;2022-07-23T06:44:47;97908.91;;;38.64;31.04
53526;BME280;40551;50.478;19.378;2022-07-23T06:47:19;97906.35;;;38.52;30.34
53526;BME280;40551;50.478;19.378;2022-07-23T06:49:51;97901.05;;;38.34;29.64
53526;BME280;40551;50.478;19.378;2022-07-23T06:52:23;97899.45;;;38.17;29.43
53526;BME280;40551;50.478;19.378;2022-07-23T06:54:56;97901.70;;;38.14;30.17
53526;BME280;40551;50.478;19.378;2022-07-23T06:57:27;97898.49;;;38.33;30.13
53526;BME280;40551;50.478;19.378;2022-07-23T07:00:06;97898.55;;;38.60;29.91
53526;BME280;40551;50.478;19.378;2022-07-23T07:02:39;97898.09;;;38.90;29.72
53526;BME280;40551;50.478;19.378;2022-07-23T07:05:11;97897.52;;;38.95;29.02
53526;BME280;40551;50.478;19.378;2022-07-23T07:07:43;97895.70;;;38.99;28.95
53526;BME280;40551;50.478;19.378;2022-07-23T07:10:15;97891.53;;;39.03;28.30
53526;BME280;40551;50.478;19.378;2022-07-23T07:12:48;97889.30;;;38.87;27.74
53526;BME280;40551;50.478;19.378;2022-07-23T07:15:20;97888.48;;;38.66;27.71
53526;BME280;40551;50.478;19.378;2022-07-23T07:17:51;97884.99;;;38.64;27.84
53526;BME280;40551;50.478;19.378;2022-07-23T07:20:23;97886.73;;;38.73;27.93
53526;BME280;40551;50.478;19.378;2022-07-23T07:22:55;97886.97;;;38.80;28.13
53526;BME280;40551;50.478;19.378;2022-07-23T07:25:27;97895.13;;;38.87;27.69
53526;BME280;40551;50.478;19.378;2022-07-23T07:28:00;97891.44;;;38.78;27.60
53526;BME280;40551;50.478;19.378;2022-07-23T07:30:31;97890.36;;;38.46;27.56
53526;BME280;40551;50.478;19.378;2022-07-23T07:33:04;97889.40;;;38.08;27.85
53526;BME280;40551;50.478;19.378;2022-07-23T07:35:35;97892.52;;;37.71;28.28
53526;BME280;40551;50.478;19.378;2022-07-23T07:38:07;97896.34;;;37.37;28.67
53526;BME280;40551;50.478;19.378;2022-07-23T07:40:39;97905.18;;;36.99;28.68
53526;BME280;40551;50.478;19.378;2022-07-23T07:43:11;97904.80;;;36.65;28.22
53526;BME280;40551;50.478;19.378;2022-07-23T07:45:43;97901.93;;;36.35;28.70
53526;BME280;40551;50.478;19.378;2022-07-23T07:48:15;97896.56;;;35.90;28.62
53526;BME280;40551;50.478;19.378;2022-07-23T07:50:47;97900.35;;;35.38;29.29
53526;BME280;40551;50.478;19.378;2022-07-23T07:53:19;97901.80;;;35.08;29.45
53526;BME280;40551;50.478;19.378;2022-07-23T07:55:51;97902.44;;;34.70;29.59
53526;BME280;40551;50.478;19.378;2022-07-23T07:58:23;97903.63;;;34.33;29.70
53526;BME280;40551;50.478;19.378;2022-07-23T08:00:55;97900.59;;;33.89;29.44
53526;BME280;40551;50.478;19.378;2022-07-23T08:03:26;97903.32;;;33.48;30.39
53526;BME280;40551;50.478;19.378;2022-07-23T08:05:59;97899.81;;;33.27;31.15
53526;BME280;40551;50.478;19.378;2022-07-23T08:08:30;97891.83;;;33.05;30.55
53526;BME280;40551;50.478;19.378;2022-07-23T08:11:02;97896.35;;;32.84;31.86
53526;BME280;40551;50.478;19.378;2022-07-23T08:13:33;97902.76;;;32.66;31.05
53526;BME280;40551;50.478;19.378;2022-07-23T08:16:07;97907.64;;;32.46;31.28
53526;BME280;40551;50.478;19.378;2022-07-23T08:18:39;97910.70;;;32.42;31.68
53526;BME280;40551;50.478;19.378;2022-07-23T08:21:11;97911.34;;;32.53;32.70
53526;BME280;40551;50.478;19.378;2022-07-23T08:23:42;97911.83;;;32.64;32.31
53526;BME280;40551;50.478;19.378;2022-07-23T08:26:14;97913.25;;;32.60;32.32
53526;BME280;40551;50.478;19.378;2022-07-23T08:28:46;97908.13;;;32.59;32.04
53526;BME280;40551;50.478;19.378;2022-07-23T08:31:18;97908.83;;;32.46;32.20
53526;BME280;40551;50.478;19.378;2022-07-23T08:33:49;97900.52;;;32.43;33.84
53526;BME280;40551;50.478;19.378;2022-07-23T08:36:22;97891.20;;;32.53;34.77
53526;BME280;40551;50.478;19.378;2022-07-23T08:38:54;97881.61;;;32.61;34.79
53526;BME280;40551;50.478;19.378;2022-07-23T08:41:26;97875.41;;;32.65;33.75
53526;BME280;40551;50.478;19.378;2022-07-23T08:43:58;97865.31;;;32.67;33.60
53526;BME280;40551;50.478;19.378;2022-07-23T08:46:32;97864.01;;;32.69;33.75
53526;BME280;40551;50.478;19.378;2022-07-23T08:49:08;97861.73;;;32.72;33.20
53526;BME280;40551;50.478;19.378;2022-07-23T08:51:40;97862.66;;;32.80;33.20
53526;BME280;40551;50.478;19.378;2022-07-23T08:54:13;97861.98;;;32.90;33.11
53526;BME280;40551;50.478;19.378;2022-07-23T08:56:44;97857.31;;;32.95;32.65
53526;BME280;40551;50.478;19.378;2022-07-23T08:59:16;97859.08;;;32.98;32.16
53526;BME280;40551;50.478;19.378;2022-07-23T09:01:48;97865.64;;;33.03;32.89
53526;BME280;40551;50.478;19.378;2022-07-23T09:04:20;97865.92;;;33.08;32.18
53526;BME280;40551;50.478;19.378;2022-07-23T09:06:57;97860.98;;;33.09;31.73
53526;BME280;40551;50.478;19.378;2022-07-23T09:09:29;97856.55;;;32.97;31.40
53526;BME280;40551;50.478;19.378;2022-07-23T09:12:06;97859.25;;;32.96;32.14
53526;BME280;40551;50.478;19.378;2022-07-23T09:14:40;97862.39;;;32.85;31.55
53526;BME280;40551;50.478;19.378;2022-07-23T09:17:15;97860.30;;;32.70;31.46
53526;BME280;40551;50.478;19.378;2022-07-23T09:19:48;97856.84;;;32.68;32.01
53526;BME280;40551;50.478;19.378;2022-07-23T09:22:21;97851.20;;;32.76;32.58
53526;BME280;40551;50.478;19.378;2022-07-23T09:25:10;97852.73;;;32.87;32.50
53526;BME280;40551;50.478;19.378;2022-07-23T09:27:54;97847.09;;;32.93;31.90
53526;BME280;40551;50.478;19.378;2022-07-23T09:30:28;97848.16;;;32.93;31.57
53526;BME280;40551;50.478;19.378;2022-07-23T09:33:08;97854.02;;;33.00;32.04
53526;BME280;40551;50.478;19.378;2022-07-23T09:35:48;97862.70;;;33.07;31.67
53526;BME280;40551;50.478;19.378;2022-07-23T09:38:22;97859.85;;;33.07;31.21
53526;BME280;40551;50.478;19.378;2022-07-23T09:41:07;97858.71;;;33.10;30.79
53526;BME280;40551;50.478;19.378;2022-07-23T09:43:39;97854.91;;;33.10;30.76
53526;BME280;40551;50.478;19.378;2022-07-23T09:46:22;97850.96;;;33.05;30.51
53526;BME280;40551;50.478;19.378;2022-07-23T09:48:55;97855.27;;;32.88;30.57
53526;BME280;40551;50.478;19.378;2022-07-23T09:51:28;97855.98;;;32.87;31.09
53526;BME280;40551;50.478;19.378;2022-07-23T09:54:05;97852.30;;;32.90;30.71
53526;BME280;40551;50.478;19.378;2022-07-23T09:56:37;97855.15;;;32.96;30.82
53526;BME280;40551;50.478;19.378;2022-07-23T09:59:09;97857.93;;;33.11;29.57
53526;BME280;40551;50.478;19.378;2022-07-23T10:01:41;97851.48;;;33.08;28.30
53526;BME280;40551;50.478;19.378;2022-07-23T10:04:13;97852.70;;;33.11;28.90
53526;BME280;40551;50.478;19.378;2022-07-23T10:07:06;97854.70;;;33.19;29.29
53526;BME280;40551;50.478;19.378;2022-07-23T10:10:02;97851.39;;;33.27;30.44
53526;BME280;40551;50.478;19.378;2022-07-23T10:13:00;97852.58;;;33.45;30.92
53526;BME280;40551;50.478;19.378;2022-07-23T10:15:51;97843.40;;;33.53;29.36
53526;BME280;40551;50.478;19.378;2022-07-23T10:18:23;97843.72;;;33.53;29.90
53526;BME280;40551;50.478;19.378;2022-07-23T10:20:55;97838.52;;;33.63;30.41
53526;BME280;40551;50.478;19.378;2022-07-23T10:23:30;97834.52;;;33.69;29.45
53526;BME280;40551;50.478;19.378;2022-07-23T10:26:12;97829.90;;;33.66;29.24
53526;BME280;40551;50.478;19.378;2022-07-23T10:29:00;97829.81;;;33.73;29.48
53526;BME280;40551;50.478;19.378;2022-07-23T10:31:43;97832.04;;;33.83;28.50
53526;BME280;40551;50.478;19.378;2022-07-23T10:34:34;97830.31;;;33.87;27.04
53526;BME280;40551;50.478;19.378;2022-07-23T10:37:14;97828.06;;;33.91;26.74
53526;BME280;40551;50.478;19.378;2022-07-23T10:40:09;97826.27;;;33.92;27.42
53526;BME280;40551;50.478;19.378;2022-07-23T10:42:40;97829.39;;;33.92;28.20
53526;BME280;40551;50.478;19.378;2022-07-23T10:45:32;97824.28;;;33.87;28.30
53526;BME280;40551;50.478;19.378;2022-07-23T10:48:18;97814.80;;;33.89;29.08
53526;BME280;40551;50.478;19.378;2022-07-23T10:51:10;97812.77;;;33.92;28.92
53526;BME280;40551;50.478;19.378;2022-07-23T10:53:57;97813.64;;;33.96;28.93
53526;BME280;40551;50.478;19.378;2022-07-23T10:57:03;97807.94;;;34.05;28.98
53526;BME280;40551;50.478;19.378;2022-07-23T11:00:21;97805.15;;;33.93;29.78
53526;BME280;40551;50.478;19.378;2022-07-23T11:02:54;97807.09;;;33.88;29.57
53526;BME280;40551;50.478;19.378;2022-07-23T11:05:40;97806.09;;;33.91;30.21
53526;BME280;40551;50.478;19.378;2022-07-23T11:08:18;97801.55;;;33.96;29.56
53526;BME280;40551;50.478;19.378;2022-07-23T11:10:53;97799.83;;;34.00;29.39
53526;BME280;40551;50.478;19.378;2022-07-23T11:13:48;97795.48;;;34.02;29.66
53526;BME280;40551;50.478;19.378;2022-07-23T11:16:26;97790.27;;;34.00;29.62
53526;BME280;40551;50.478;19.378;2022-07-23T11:19:08;97793.09;;;34.05;29.61
53526;BME280;40551;50.478;19.378;2022-07-23T11:21:45;97791.45;;;34.07;29.28
53526;BME280;40551;50.478;19.378;2022-07-23T11:24:22;97791.53;;;34.10;28.65
53526;BME280;40551;50.478;19.378;2022-07-23T11:27:02;97789.79;;;34.18;28.35
53526;BME280;40551;50.478;19.378;2022-07-23T11:29:44;97788.90;;;34.23;28.58
53526;BME280;40551;50.478;19.378;2022-07-23T11:32:30;97788.20;;;34.28;28.48
53526;BME280;40551;50.478;19.378;2022-07-23T11:35:19;97783.86;;;34.26;28.75
53526;BME280;40551;50.478;19.378;2022-07-23T11:37:53;97784.64;;;34.20;28.97
53526;BME280;40551;50.478;19.378;2022-07-23T11:40:28;97782.73;;;34.13;29.33
53526;BME280;40551;50.478;19.378;2022-07-23T11:43:02;97778.11;;;34.07;29.76
53526;BME280;40551;50.478;19.378;2022-07-23T11:45:35;97773.86;;;33.99;30.23
53526;BME280;40551;50.478;19.378;2022-07-23T11:48:16;97775.94;;;33.98;30.79
53526;BME280;40551;50.478;19.378;2022-07-23T11:50:48;97774.54;;;34.01;30.53
53526;BME280;40551;50.478;19.378;2022-07-23T11:53:27;97770.94;;;34.04;30.74
53526;BME280;40551;50.478;19.378;2022-07-23T11:56:06;97764.34;;;34.11;31.27
53526;BME280;40551;50.478;19.378;2022-07-23T11:58:39;97762.85;;;34.14;30.49
53526;BME280;40551;50.478;19.378;2022-07-23T12:01:25;97760.05;;;34.04;29.48
53526;BME280;40551;50.478;19.378;2022-07-23T12:03:56;97758.13;;;33.89;29.36
53526;BME280;40551;50.478;19.378;2022-07-23T12:06:28;97755.82;;;33.69;29.40
53526;BME280;40551;50.478;19.378;2022-07-23T12:09:00;97749.89;;;33.54;30.10
53526;BME280;40551;50.478;19.378;2022-07-23T12:11:32;97748.11;;;33.53;30.18
53526;BME280;40551;50.478;19.378;2022-07-23T12:14:03;97746.86;;;33.46;29.83
53526;BME280;40551;50.478;19.378;2022-07-23T12:16:36;97744.96;;;33.44;30.17
53526;BME280;40551;50.478;19.378;2022-07-23T12:19:08;97743.17;;;33.39;30.04
53526;BME280;40551;50.478;19.378;2022-07-23T12:21:40;97740.56;;;33.41;30.02
53526;BME280;40551;50.478;19.378;2022-07-23T12:24:12;97737.45;;;33.52;30.86
53526;BME280;40551;50.478;19.378;2022-07-23T12:27:10;97733.21;;;33.64;30.95
53526;BME280;40551;50.478;19.378;2022-07-23T12:29:41;97733.02;;;33.76;30.69
53526;BME280;40551;50.478;19.378;2022-07-23T12:32:21;97727.95;;;33.93;30.86
53526;BME280;40551;50.478;19.378;2022-07-23T12:35:04;97727.80;;;34.05;30.53
53526;BME280;40551;50.478;19.378;2022-07-23T12:37:38;97729.55;;;34.16;30.40
53526;BME280;40551;50.478;19.378;2022-07-23T12:40:25;97726.77;;;34.24;29.86
53526;BME280;40551;50.478;19.378;2022-07-23T12:42:59;97721.86;;;34.33;30.01
53526;BME280;40551;50.478;19.378;2022-07-23T12:45:44;97721.63;;;34.40;30.37
53526;BME280;40551;50.478;19.378;2022-07-23T12:48:22;97719.15;;;34.44;29.65
53526;BME280;40551;50.478;19.378;2022-07-23T12:50:56;97716.98;;;34.40;29.52
53526;BME280;40551;50.478;19.378;2022-07-23T12:53:30;97712.25;;;34.42;29.27
53526;BME280;40551;50.478;19.378;2022-07-23T12:56:08;97706.73;;;34.50;29.20
53526;BME280;40551;50.478;19.378;2022-07-23T12:58:47;97708.78;;;34.59;28.94
53526;BME280;40551;50.478;19.378;2022-07-23T13:01:40;97707.27;;;34.54;29.92
53526;BME280;40551;50.478;19.378;2022-07-23T13:04:17;97700.88;;;34.48;29.57
53526;BME280;40551;50.478;19.378;2022-07-23T13:06:53;97695.89;;;34.38;29.73
53526;BME280;40551;50.478;19.378;2022-07-23T13:09:31;97693.96;;;34.31;30.13
53526;BME280;40551;50.478;19.378;2022-07-23T13:12:11;97688.09;;;34.29;30.20
53526;BME280;40551;50.478;19.378;2022-07-23T13:14:42;97684.21;;;34.29;28.65
53526;BME280;40551;50.478;19.378;2022-07-23T13:17:14;97690.20;;;34.22;29.54
53526;BME280;40551;50.478;19.378;2022-07-23T13:19:49;97696.10;;;34.14;30.74
53526;BME280;40551;50.478;19.378;2022-07-23T13:22:21;97689.94;;;34.07;29.93
53526;BME280;40551;50.478;19.378;2022-07-23T13:24:53;97686.67;;;33.99;30.24
53526;BME280;40551;50.478;19.378;2022-07-23T13:27:25;97685.83;;;33.93;30.08
53526;BME280;40551;50.478;19.378;2022-07-23T13:29:56;97678.68;;;33.94;29.92